createdAt,value
2023-03-18T00:06:05.310Z,96.39
2023-03-18T00:15:39.327Z,98.81
2023-03-18T00:25:18.341Z,100.00
2023-03-18T00:34:49.393Z,100.00
2023-03-18T00:44:21.603Z,100.00
2023-03-18T00:53:55.378Z,100.00
2023-03-18T01:03:29.445Z,100.00
2023-03-18T01:13:04.734Z,100.00
2023-03-18T01:22:36.944Z,100.00
2023-03-18T01:32:10.781Z,100.00
2023-03-18T01:41:45.038Z,100.00
2023-03-18T01:51:16.926Z,100.00
2023-03-18T02:00:52.424Z,100.00
2023-03-18T02:10:24.569Z,100.00
2023-03-18T02:19:59.951Z,100.00
2023-03-18T02:29:31.839Z,100.00
2023-03-18T02:39:05.648Z,100.00
2023-03-18T02:48:39.442Z,100.00
2023-03-18T02:58:13.456Z,100.00
2023-03-18T03:07:45.186Z,100.00
2023-03-18T03:17:19.072Z,100.00
2023-03-18T03:26:52.604Z,100.00
2023-03-18T03:36:26.016Z,100.00
2023-03-18T03:46:01.514Z,100.00
2023-03-18T03:55:33.704Z,100.00
2023-03-18T04:05:06.674Z,100.00
2023-03-18T04:14:39.669Z,100.00
2023-03-18T04:24:12.073Z,100.00
2023-03-18T04:33:45.559Z,100.00
2023-03-18T04:43:21.224Z,100.00
2023-03-18T04:52:52.912Z,100.00
2023-03-18T05:02:26.739Z,100.00
2023-03-18T05:12:00.162Z,100.00
2023-03-18T05:21:35.193Z,100.00
2023-03-18T05:31:08.413Z,100.00
2023-03-18T05:40:40.580Z,100.00
2023-03-18T05:50:15.935Z,100.00
2023-03-18T05:59:47.561Z,100.00
2023-03-18T06:09:21.651Z,100.00
2023-03-18T06:18:55.210Z,100.00
2023-03-18T06:28:28.851Z,100.00
2023-03-18T06:38:04.310Z,100.00
2023-03-18T06:47:38.007Z,100.00
2023-03-18T06:57:10.339Z,100.00
2023-03-18T07:06:45.364Z,100.00
2023-03-18T07:16:18.046Z,100.00
2023-03-18T07:25:53.950Z,100.00
2023-03-18T07:35:26.331Z,100.00
2023-03-18T07:45:01.124Z,100.00
2023-03-18T07:54:35.801Z,100.00
2023-03-18T08:04:10.273Z,100.00
2023-03-18T08:13:46.457Z,100.00
2023-03-18T08:14:48.783Z,100.00
2023-03-18T08:15:51.249Z,100.00
2023-03-18T08:25:25.096Z,100.00
2023-03-18T08:35:00.187Z,100.00
2023-03-18T08:36:02.605Z,100.00
2023-03-18T08:37:05.079Z,100.00
2023-03-18T08:38:09.169Z,100.00
2023-03-18T08:39:13.127Z,100.00
2023-03-18T08:40:17.043Z,100.00
2023-03-18T08:41:19.322Z,98.12
2023-03-18T08:42:21.801Z,98.07
2023-03-18T08:51:56.281Z,89.20
2023-03-18T08:53:00.256Z,84.39
2023-03-18T08:54:02.552Z,85.76
2023-03-18T08:55:04.969Z,83.64
2023-03-18T08:56:07.428Z,84.90
2023-03-18T08:57:11.461Z,85.27
2023-03-18T08:58:14.819Z,85.12
2023-03-18T08:59:18.768Z,85.92
2023-03-18T09:00:22.715Z,87.00
2023-03-18T09:01:25.184Z,89.05
2023-03-18T09:02:27.456Z,89.56
2023-03-18T09:03:29.919Z,84.58
2023-03-18T09:04:32.415Z,84.22
2023-03-18T09:05:35.198Z,80.71
2023-03-18T09:06:37.224Z,80.08
2023-03-18T09:07:41.232Z,78.67
2023-03-18T09:08:45.238Z,79.05
2023-03-18T09:09:47.606Z,79.21
2023-03-18T09:10:51.565Z,77.30
2023-03-18T09:11:53.952Z,78.68
2023-03-18T09:12:58.049Z,78.17
2023-03-18T09:14:02.004Z,78.46
2023-03-18T09:15:05.834Z,76.92
2023-03-18T09:16:09.722Z,78.34
2023-03-18T09:25:40.261Z,77.66
2023-03-18T09:26:44.378Z,76.75
2023-03-18T09:27:46.704Z,76.50
2023-03-18T09:28:49.123Z,77.60
2023-03-18T09:29:53.159Z,78.28
2023-03-18T09:30:57.219Z,75.90
2023-03-18T09:31:59.517Z,76.69
2023-03-18T09:33:02.013Z,77.32
2023-03-18T09:34:04.426Z,78.90
2023-03-18T09:35:06.918Z,79.55
2023-03-18T09:36:09.370Z,76.40
2023-03-18T09:37:11.790Z,76.05
2023-03-18T09:38:15.863Z,77.90
2023-03-18T09:39:19.838Z,76.97
2023-03-18T09:40:22.208Z,74.35
2023-03-18T09:41:26.210Z,75.75
2023-03-18T09:42:28.839Z,73.98
2023-03-18T09:43:31.218Z,74.69
2023-03-18T09:44:33.806Z,75.50
2023-03-18T09:45:36.332Z,72.01
2023-03-18T09:46:38.909Z,71.90
2023-03-18T09:47:41.208Z,71.51
2023-03-18T09:48:43.718Z,69.26
2023-03-18T09:49:46.172Z,69.79
2023-03-18T09:50:48.670Z,68.14
2023-03-18T09:51:51.119Z,66.93
2023-03-18T09:52:55.144Z,70.92
2023-03-18T09:53:57.446Z,72.99
2023-03-18T09:55:01.484Z,69.97
2023-03-18T09:56:03.873Z,70.13
2023-03-18T09:57:06.356Z,70.27
2023-03-18T09:58:08.821Z,67.98
2023-03-18T09:59:11.295Z,67.08
2023-03-18T10:00:13.901Z,68.38
2023-03-18T10:01:16.369Z,68.88
2023-03-18T10:02:20.419Z,68.71
2023-03-18T10:03:22.775Z,68.29
2023-03-18T10:04:26.863Z,67.87
2023-03-18T10:05:30.949Z,69.73
2023-03-18T10:06:34.745Z,67.95
2023-03-18T10:07:38.653Z,67.13
2023-03-18T10:08:40.910Z,68.36
2023-03-18T10:09:43.414Z,70.98
2023-03-18T10:10:45.839Z,69.83
2023-03-18T10:11:50.054Z,65.67
2023-03-18T10:12:52.316Z,63.19
2023-03-18T10:13:56.425Z,65.20
2023-03-18T10:14:58.745Z,65.76
2023-03-18T10:16:02.805Z,65.12
2023-03-18T10:17:06.678Z,66.51
2023-03-18T10:18:08.988Z,65.80
2023-03-18T10:19:11.506Z,66.22
2023-03-18T10:20:15.363Z,66.56
2023-03-18T10:21:18.007Z,68.52
2023-03-18T10:22:20.345Z,67.30
2023-03-18T10:23:22.903Z,63.91
2023-03-18T10:24:26.912Z,66.39
2023-03-18T10:25:29.227Z,63.05
2023-03-18T10:26:31.716Z,63.80
2023-03-18T10:27:34.161Z,62.44
2023-03-18T10:28:36.600Z,61.73
2023-03-18T10:29:39.051Z,61.06
2023-03-18T10:30:42.942Z,61.44
2023-03-18T10:31:45.618Z,62.45
2023-03-18T10:32:50.565Z,65.75
2023-03-18T10:33:53.443Z,62.03
2023-03-18T10:34:57.490Z,64.35
2023-03-18T10:36:01.409Z,63.83
2023-03-18T10:37:03.704Z,61.68
2023-03-18T10:38:07.740Z,61.65
2023-03-18T10:39:10.157Z,62.56
2023-03-18T10:40:14.114Z,63.29
2023-03-18T10:41:16.467Z,62.03
2023-03-18T10:42:20.473Z,62.31
2023-03-18T10:43:24.366Z,61.94
2023-03-18T10:44:28.301Z,63.71
2023-03-18T10:45:30.801Z,63.99
2023-03-18T10:46:33.384Z,63.63
2023-03-18T10:47:35.630Z,62.18
2023-03-18T10:48:39.602Z,62.90
2023-03-18T10:49:41.939Z,63.85
2023-03-18T10:50:44.440Z,61.71
2023-03-18T10:51:46.960Z,60.80
2023-03-18T10:52:49.399Z,61.84
2023-03-18T10:53:51.896Z,60.43
2023-03-18T10:54:55.814Z,62.45
2023-03-18T10:55:58.189Z,61.51
2023-03-18T10:57:00.609Z,60.96
2023-03-18T10:58:04.655Z,61.17
2023-03-18T10:59:08.565Z,61.55
2023-03-18T11:00:11.904Z,61.96
2023-03-18T11:01:18.246Z,61.60
2023-03-18T11:02:19.805Z,60.23
2023-03-18T11:03:22.114Z,60.12
2023-03-18T11:04:26.106Z,59.03
2023-03-18T11:05:30.422Z,58.94
2023-03-18T11:06:33.960Z,60.27
2023-03-18T11:07:36.284Z,58.97
2023-03-18T11:08:38.739Z,58.75
2023-03-18T11:09:41.170Z,58.28
2023-03-18T11:10:43.657Z,58.91
2023-03-18T11:11:46.063Z,60.82
2023-03-18T11:12:48.520Z,60.83
2023-03-18T11:13:50.987Z,59.47
2023-03-18T11:14:55.050Z,60.12
2023-03-18T11:15:57.435Z,62.42
2023-03-18T11:17:01.488Z,59.38
2023-03-18T11:18:05.308Z,59.92
2023-03-18T11:19:07.631Z,62.05
2023-03-18T11:20:10.081Z,62.11
2023-03-18T11:21:14.106Z,59.27
2023-03-18T11:22:18.216Z,60.61
2023-03-18T11:23:20.547Z,60.25
2023-03-18T11:24:24.568Z,60.12
2023-03-18T11:25:28.507Z,60.43
2023-03-18T11:26:32.345Z,60.06
2023-03-18T11:27:34.694Z,58.19
2023-03-18T11:28:38.714Z,59.09
2023-03-18T11:29:41.076Z,60.91
2023-03-18T11:30:43.740Z,60.77
2023-03-18T11:31:47.597Z,59.43
2023-03-18T11:32:51.535Z,57.66
2023-03-18T11:33:53.864Z,59.59
2023-03-18T11:34:56.337Z,58.44
2023-03-18T11:35:58.812Z,58.43
2023-03-18T11:37:01.217Z,57.36
2023-03-18T11:38:03.695Z,57.46
2023-03-18T11:39:06.099Z,56.60
2023-03-18T11:40:10.179Z,57.63
2023-03-18T11:41:14.148Z,57.49
2023-03-18T11:42:16.488Z,58.87
2023-03-18T11:43:19.040Z,63.08
2023-03-18T11:44:21.406Z,56.67
2023-03-18T11:45:23.881Z,56.53
2023-03-18T11:46:27.915Z,56.95
2023-03-18T11:47:30.263Z,55.79
2023-03-18T11:48:32.671Z,55.80
2023-03-18T11:49:35.165Z,56.49
2023-03-18T11:50:37.620Z,58.08
2023-03-18T11:51:40.146Z,58.57
2023-03-18T11:52:42.578Z,58.51
2023-03-18T11:53:45.042Z,59.47
2023-03-18T11:54:47.521Z,59.14
2023-03-18T11:55:49.939Z,54.96
2023-03-18T11:56:52.407Z,54.98
2023-03-18T11:57:56.472Z,55.21
2023-03-18T11:58:58.813Z,58.12
2023-03-18T12:00:01.479Z,56.06
2023-03-18T12:01:03.916Z,55.95
2023-03-18T12:02:06.451Z,54.83
2023-03-18T12:03:10.733Z,55.74
2023-03-18T12:04:12.844Z,54.39
2023-03-18T12:05:17.034Z,56.13
2023-03-18T12:06:19.226Z,56.13
2023-03-18T12:07:21.677Z,55.84
2023-03-18T12:08:24.188Z,57.45
2023-03-18T12:09:26.710Z,57.35
2023-03-18T12:10:29.183Z,54.99
2023-03-18T12:11:31.702Z,56.00
2023-03-18T12:12:35.826Z,55.49
2023-03-18T12:13:38.105Z,54.99
2023-03-18T12:14:40.627Z,54.14
2023-03-18T12:15:43.123Z,55.50
2023-03-18T12:16:47.218Z,53.53
2023-03-18T12:17:49.532Z,53.37
2023-03-18T12:18:51.955Z,55.40
2023-03-18T12:19:56.065Z,55.22
2023-03-18T12:20:59.998Z,55.22
2023-03-18T12:22:02.332Z,53.33
2023-03-18T12:23:06.420Z,52.86
2023-03-18T12:24:09.759Z,55.03
2023-03-18T12:25:12.163Z,53.38
2023-03-18T12:26:14.680Z,54.32
2023-03-18T12:27:17.210Z,54.26
2023-03-18T12:28:21.299Z,52.66
2023-03-18T12:29:25.183Z,53.45
2023-03-18T12:30:29.165Z,53.51
2023-03-18T12:31:31.610Z,52.54
2023-03-18T12:32:35.739Z,53.58
2023-03-18T12:33:39.617Z,55.49
2023-03-18T12:34:41.960Z,53.27
2023-03-18T12:35:46.292Z,54.46
2023-03-18T12:36:48.581Z,53.04
2023-03-18T12:37:51.028Z,52.46
2023-03-18T12:38:54.570Z,54.22
2023-03-18T12:39:56.939Z,52.83
2023-03-18T12:41:01.060Z,53.08
2023-03-18T12:42:05.031Z,52.80
2023-03-18T12:43:08.913Z,54.12
2023-03-18T12:44:11.323Z,53.26
2023-03-18T12:45:15.358Z,52.54
2023-03-18T12:46:19.371Z,52.62
2023-03-18T12:47:23.241Z,52.80
2023-03-18T12:48:42.632Z,54.00
2023-03-18T12:49:28.084Z,53.70
2023-03-18T12:50:30.529Z,53.37
2023-03-18T12:51:34.667Z,54.63
2023-03-18T12:52:37.084Z,52.96
2023-03-18T12:53:39.644Z,54.77
2023-03-18T12:54:42.122Z,54.96
2023-03-18T12:55:44.600Z,55.11
2023-03-18T12:56:48.719Z,53.67
2023-03-18T12:57:53.647Z,52.66
2023-03-18T12:58:56.014Z,53.34
2023-03-18T13:00:00.075Z,53.53
2023-03-18T13:01:02.519Z,53.28
2023-03-18T13:02:06.615Z,52.42
2023-03-18T13:03:08.926Z,53.68
2023-03-18T13:04:11.354Z,53.82
2023-03-18T13:05:13.898Z,55.86
2023-03-18T13:06:16.427Z,55.61
2023-03-18T13:07:18.907Z,56.50
2023-03-18T13:08:21.374Z,53.06
2023-03-18T13:09:26.510Z,52.80
2023-03-18T13:10:28.880Z,54.46
2023-03-18T13:11:32.952Z,53.94
2023-03-18T13:12:35.296Z,55.46
2023-03-18T13:13:39.348Z,54.47
2023-03-18T13:14:43.296Z,52.63
2023-03-18T13:15:47.201Z,53.93
2023-03-18T13:16:49.592Z,51.97
2023-03-18T13:17:53.614Z,54.13
2023-03-18T13:18:57.489Z,52.66
2023-03-18T13:20:01.496Z,52.67
2023-03-18T13:21:03.848Z,52.42
2023-03-18T13:22:07.967Z,51.68
2023-03-18T13:23:11.883Z,51.84
2023-03-18T13:24:14.232Z,51.94
2023-03-18T13:25:16.679Z,52.52
2023-03-18T13:26:19.161Z,53.13
2023-03-18T13:27:21.627Z,53.30
2023-03-18T13:28:24.196Z,53.17
2023-03-18T13:29:26.728Z,54.05
2023-03-18T13:30:29.180Z,51.16
2023-03-18T13:31:33.241Z,54.03
2023-03-18T13:32:36.714Z,54.20
2023-03-18T13:33:40.649Z,54.05
2023-03-18T13:43:12.407Z,52.38
2023-03-18T13:44:17.335Z,53.18
2023-03-18T13:45:25.205Z,55.52
2023-03-18T13:46:28.422Z,53.60
2023-03-18T13:47:30.724Z,55.01
2023-03-18T13:48:34.625Z,53.28
2023-03-18T13:49:39.338Z,51.82
2023-03-18T13:50:45.853Z,54.76
2023-03-18T13:51:48.132Z,54.28
2023-03-18T13:52:50.510Z,54.82
2023-03-18T13:53:54.069Z,53.66
2023-03-18T13:55:01.852Z,53.41
2023-03-18T13:56:04.954Z,54.62
2023-03-18T13:57:08.239Z,55.97
2023-03-18T13:58:11.643Z,51.94
2023-03-18T13:59:14.995Z,52.91
2023-03-18T14:00:17.201Z,51.89
2023-03-18T14:01:20.661Z,51.36
2023-03-18T14:02:23.977Z,50.94
2023-03-18T14:03:31.982Z,52.52
2023-03-18T14:04:35.651Z,51.49
2023-03-18T14:05:37.968Z,52.24
2023-03-18T14:06:41.451Z,54.75
2023-03-18T14:07:43.633Z,54.58
2023-03-18T14:08:46.106Z,51.76
2023-03-18T14:09:49.550Z,52.72
2023-03-18T14:10:52.922Z,53.42
2023-03-18T14:11:55.247Z,50.47
2023-03-18T14:12:57.685Z,49.52
2023-03-18T14:14:00.146Z,50.43
2023-03-18T14:15:03.616Z,49.63
2023-03-18T14:16:07.597Z,49.79
2023-03-18T14:17:09.874Z,50.66
2023-03-18T14:18:13.925Z,50.75
2023-03-18T14:19:16.332Z,51.60
2023-03-18T14:20:20.431Z,51.01
2023-03-18T14:21:22.747Z,53.26
2023-03-18T14:22:25.246Z,54.03
2023-03-18T14:23:27.747Z,52.56
2023-03-18T14:24:30.300Z,50.72
2023-03-18T14:25:33.015Z,52.48
2023-03-18T14:26:38.008Z,50.92
2023-03-18T14:27:40.251Z,49.29
2023-03-18T14:28:42.730Z,50.16
2023-03-18T14:29:45.260Z,50.38
2023-03-18T14:30:49.300Z,49.48
2023-03-18T14:31:52.692Z,51.26
2023-03-18T14:32:58.921Z,52.07
2023-03-18T14:34:01.117Z,51.54
2023-03-18T14:35:05.155Z,51.71
2023-03-18T14:36:09.850Z,51.11
2023-03-18T14:37:09.943Z,50.86
2023-03-18T14:38:12.363Z,51.28
2023-03-18T14:39:16.403Z,52.13
2023-03-18T14:40:20.372Z,54.04
2023-03-18T14:41:22.739Z,53.32
2023-03-18T14:42:26.747Z,54.50
2023-03-18T14:43:30.693Z,55.52
2023-03-18T14:44:34.726Z,54.75
2023-03-18T14:45:39.751Z,54.15
2023-03-18T14:46:43.069Z,53.34
2023-03-18T14:47:46.854Z,51.99
2023-03-18T14:48:50.835Z,53.27
2023-03-18T14:49:54.835Z,56.49
2023-03-18T14:50:59.750Z,53.50
2023-03-18T14:52:03.599Z,51.30
2023-03-18T14:53:08.622Z,50.64
2023-03-18T14:54:12.565Z,50.93
2023-03-18T14:55:15.911Z,50.79
2023-03-18T14:56:19.378Z,48.09
2023-03-18T14:57:21.867Z,46.41
2023-03-18T14:58:25.242Z,47.55
2023-03-18T14:59:29.196Z,45.91
2023-03-18T15:00:33.159Z,47.79
2023-03-18T15:01:35.736Z,49.13
2023-03-18T15:02:39.654Z,50.77
2023-03-18T15:03:42.926Z,51.16
2023-03-18T15:04:45.329Z,52.75
2023-03-18T15:05:47.910Z,50.90
2023-03-18T15:06:50.506Z,46.08
2023-03-18T15:07:52.986Z,47.24
2023-03-18T15:08:58.111Z,46.87
2023-03-18T15:10:00.461Z,46.10
2023-03-18T15:11:04.609Z,45.30
2023-03-18T15:12:10.803Z,44.99
2023-03-18T15:13:15.975Z,45.10
2023-03-18T15:14:18.154Z,44.06
2023-03-18T15:15:21.703Z,44.44
2023-03-18T15:16:24.173Z,43.67
2023-03-18T15:17:28.191Z,43.96
2023-03-18T15:18:33.228Z,43.24
2023-03-18T15:19:35.554Z,43.24
2023-03-18T15:20:39.637Z,44.86
2023-03-18T15:21:43.098Z,45.04
2023-03-18T15:22:47.130Z,44.70
2023-03-18T15:23:51.118Z,42.24
2023-03-18T15:24:55.134Z,41.26
2023-03-18T15:25:57.529Z,41.84
2023-03-18T15:27:00.053Z,44.52
2023-03-18T15:28:04.130Z,42.16
2023-03-18T15:29:06.570Z,41.29
2023-03-18T15:30:11.543Z,46.25
2023-03-18T15:31:14.910Z,42.68
2023-03-18T15:32:17.308Z,43.03
2023-03-18T15:33:21.363Z,41.56
2023-03-18T15:34:25.359Z,40.57
2023-03-18T15:35:27.792Z,42.34
2023-03-18T15:36:30.267Z,41.02
2023-03-18T15:37:32.747Z,40.05
2023-03-18T15:38:36.940Z,39.86
2023-03-18T15:39:39.296Z,41.64
2023-03-18T15:40:43.405Z,39.49
2023-03-18T15:41:47.408Z,40.24
2023-03-18T15:42:49.879Z,40.42
2023-03-18T15:43:52.378Z,40.04
2023-03-18T15:44:56.476Z,40.48
2023-03-18T15:45:58.895Z,39.33
2023-03-18T15:47:01.311Z,40.31
2023-03-18T15:48:03.827Z,38.83
2023-03-18T15:49:06.338Z,38.57
2023-03-18T15:50:10.460Z,38.57
2023-03-18T15:51:12.793Z,40.66
2023-03-18T15:52:17.021Z,40.33
2023-03-18T15:53:19.399Z,41.31
2023-03-18T15:54:21.895Z,40.39
2023-03-18T15:55:24.399Z,39.29
2023-03-18T15:56:26.912Z,38.50
2023-03-18T15:57:29.431Z,38.96
2023-03-18T15:58:31.980Z,41.98
2023-03-18T15:59:36.101Z,39.12
2023-03-18T16:00:40.068Z,39.45
2023-03-18T16:01:42.456Z,39.52
2023-03-18T16:02:46.625Z,42.60
2023-03-18T16:03:50.555Z,40.22
2023-03-18T16:04:54.513Z,38.71
2023-03-18T16:05:56.925Z,38.55
2023-03-18T16:06:59.434Z,40.89
2023-03-18T16:08:01.975Z,40.89
2023-03-18T16:09:04.432Z,39.42
2023-03-18T16:10:08.590Z,41.00
2023-03-18T16:11:11.092Z,44.55
2023-03-18T16:12:15.117Z,39.40
2023-03-18T16:13:17.455Z,41.09
2023-03-18T16:14:19.994Z,39.28
2023-03-18T16:15:22.543Z,37.95
2023-03-18T16:16:25.068Z,38.77
2023-03-18T16:17:29.175Z,38.25
2023-03-18T16:18:33.162Z,39.07
2023-03-18T16:19:37.061Z,37.19
2023-03-18T16:20:39.446Z,37.99
2023-03-18T16:21:43.569Z,38.93
2023-03-18T16:22:47.551Z,38.35
2023-03-18T16:23:49.911Z,40.42
2023-03-18T16:24:54.087Z,39.57
2023-03-18T16:25:58.010Z,40.07
2023-03-18T16:27:00.374Z,39.88
2023-03-18T16:28:02.868Z,40.37
2023-03-18T16:29:05.323Z,40.71
2023-03-18T16:30:08.091Z,39.79
2023-03-18T16:31:10.371Z,40.75
2023-03-18T16:32:14.437Z,41.54
2023-03-18T16:33:16.904Z,40.64
2023-03-18T16:34:21.890Z,39.59
2023-03-18T16:35:24.929Z,40.51
2023-03-18T16:36:27.251Z,40.90
2023-03-18T16:37:29.723Z,39.12
2023-03-18T16:38:33.850Z,39.93
2023-03-18T16:39:36.197Z,39.10
2023-03-18T16:40:38.641Z,40.68
2023-03-18T16:41:41.156Z,40.42
2023-03-18T16:42:45.208Z,41.77
2023-03-18T16:43:47.587Z,43.00
2023-03-18T16:44:50.087Z,42.65
2023-03-18T16:45:52.588Z,44.15
2023-03-18T16:46:56.598Z,43.11
2023-03-18T16:47:58.946Z,43.23
2023-03-18T16:49:03.186Z,45.08
2023-03-18T16:50:06.979Z,44.07
2023-03-18T16:51:09.341Z,44.55
2023-03-18T16:52:13.373Z,44.44
2023-03-18T16:53:19.517Z,44.90
2023-03-18T16:54:21.732Z,45.66
2023-03-18T16:55:25.620Z,46.30
2023-03-18T16:56:27.917Z,47.08
2023-03-18T16:57:31.367Z,47.81
2023-03-18T16:58:35.570Z,49.03
2023-03-18T16:59:38.858Z,47.85
2023-03-18T17:00:41.077Z,48.37
2023-03-18T17:01:43.509Z,49.54
2023-03-18T17:02:47.520Z,49.88
2023-03-18T17:03:51.555Z,50.55
2023-03-18T17:04:53.803Z,50.68
2023-03-18T17:05:56.327Z,50.73
2023-03-18T17:06:58.853Z,52.17
2023-03-18T17:08:02.916Z,52.07
2023-03-18T17:09:06.855Z,51.46
2023-03-18T17:10:10.836Z,52.17
2023-03-18T17:11:13.340Z,53.06
2023-03-18T17:12:17.205Z,53.35
2023-03-18T17:13:25.004Z,53.58
2023-03-18T17:14:27.148Z,54.13
2023-03-18T17:15:29.556Z,53.84
2023-03-18T17:16:32.142Z,53.60
2023-03-18T17:17:36.299Z,54.20
2023-03-18T17:18:40.202Z,54.19
2023-03-18T17:19:42.582Z,53.92
2023-03-18T17:20:45.077Z,54.44
2023-03-18T17:21:47.489Z,54.64
2023-03-18T17:22:50.005Z,55.08
2023-03-18T17:23:52.422Z,55.57
2023-03-18T17:24:57.591Z,56.10
2023-03-18T17:25:59.734Z,56.48
2023-03-18T17:27:03.778Z,56.92
2023-03-18T17:28:06.176Z,57.09
2023-03-18T17:29:11.232Z,57.49
2023-03-18T17:30:13.468Z,57.77
2023-03-18T17:31:15.996Z,57.79
2023-03-18T17:32:18.396Z,58.22
2023-03-18T17:41:50.385Z,60.68
2023-03-18T17:51:20.124Z,62.41
2023-03-18T18:00:52.470Z,64.61
2023-03-18T18:10:28.206Z,66.27
2023-03-18T18:19:59.796Z,67.88
2023-03-18T18:29:31.101Z,68.93
2023-03-18T18:39:04.991Z,70.58
2023-03-18T18:48:39.022Z,72.63
2023-03-18T18:58:15.609Z,73.81
2023-03-18T19:07:47.098Z,75.79
2023-03-18T19:17:20.975Z,77.60
2023-03-18T19:18:25.060Z,77.88
2023-03-18T19:27:56.616Z,78.55
2023-03-18T19:37:32.189Z,79.22
2023-03-18T19:47:04.073Z,80.45
2023-03-18T19:56:38.092Z,81.88
2023-03-18T20:06:14.335Z,82.76
2023-03-18T20:15:47.213Z,83.21
2023-03-18T20:25:20.682Z,84.08
2023-03-18T20:34:53.712Z,84.51
2023-03-18T20:44:28.056Z,84.24
2023-03-18T20:54:03.877Z,84.49
2023-03-18T21:03:37.822Z,84.25
2023-03-18T21:13:10.170Z,82.40
2023-03-18T21:22:44.371Z,84.07
2023-03-18T21:32:20.104Z,85.90
2023-03-18T21:41:52.588Z,86.78
2023-03-18T21:51:37.843Z,87.05
2023-03-18T22:01:01.022Z,88.70
2023-03-18T22:10:35.520Z,87.92
2023-03-18T22:20:09.831Z,86.81
2023-03-18T22:29:44.382Z,86.38
2023-03-18T22:39:20.372Z,85.51
2023-03-18T22:48:54.631Z,87.16
2023-03-18T22:58:28.816Z,87.45
2023-03-18T23:08:01.505Z,88.80
2023-03-18T23:17:37.645Z,89.43
2023-03-18T23:27:09.956Z,90.90
2023-03-18T23:36:45.801Z,91.73
2023-03-18T23:46:19.887Z,91.61
2023-03-18T23:55:52.384Z,93.67
